Tybee Island, GA (31328)

4:15 AM EDT on September 02, 2014 (GMT -0400)
Tid-Bit | Change Station
CLOSE
Current Station
Personal Weather Station
Location: Tybee Island, GA
Elevation: 10 ft
Nearby Weather Stations

Elev 10 ft 32.01 °N, 80.85 °W | Updated 30 seconds ago

Clear
Clear
81.0 °F
Feels Like 88 °F
N
0.0
Wind Variable Wind from West
Gusts 2.0 mph

Today
High -- | Low -- °F
--% Chance of Precip.
Yesterday
High -- | Low -- °F
Precip. -- in
6:59 AM 7:46 PM
Waxing Crescent, 49% visible
Pressure 30.07 in
Visibility 10.0 miles
Clouds Clear
Heat Index 88 °F
Dew Point 77 °F
Humidity 88%
Rainfall 0.00 in
Snow Depth Not available.
UV 0 out of 12
Pollen 7.40 out of 12
Air Quality Not available.
Flu Activity Not available.
METAR KHXD 020755Z AUTO 00000KT 10SM CLR 26/25 A3007 RMK AO2 P0000

More Conditions Fewer Conditions

Pressure 30.07 in
Visibility 10.0 miles
Clouds Clear
Heat Index 88 °F
Dew Point 77 °F
Humidity 88%
Rainfall 0.00 in
Snow Depth Not available.
UV 0 out of 12
Pollen 7.40 out of 12
Air Quality Not available.
Flu Activity Not available.
METAR KHXD 020755Z AUTO 00000KT 10SM CLR 26/25 A3007 RMK AO2 P0000

More Conditions Fewer Conditions

10-Day Weather Forecast

Almanac

Astronomy

Sep. 02, 2014 Rise Set
Actual Time 6:59 AM EDT 7:46 PM EDT
Civil Twilight 6:34 AM EDT 8:11 PM EDT
Nautical Twilight 6:05 AM EDT 8:40 PM EDT
Astronomical Twilight 5:35 AM EDT 9:10 PM EDT
Moon 2:17 PM EDT 12:11 AM EDT
Length of Visible Light 13h 36m
Length of Day
12h 46m
Tomorrow will be 1m 53s shorter.
Waxing Crescent, 49% of the Moon is Illuminated
Today
Waxing Crescent
Sep 2
First Quarter
Sep 8
Full
Sep 15
Last Quarter
Sep 24
New

Today's Extremes

State Highs State Lows

Community

WunderPhotos

Upload Photos

1,749,587 photos uploaded!

WunderBlogs® & News

Nearby

Snow Depth

Station Depth Elevation
No new snow has been reported.

Earthquake Activity

City Distance Mag. Time & Date
No recent earthquake activity has been reported nearby.
Minimum magnitude displayed is 2.5.

Coastal Water Temperatures

Place Temperature
No Stations Reporting

Nearby Weather Stations